createdAt,value
2018-06-01T00:00:27.359Z,101095.08
2018-06-01T00:01:30.687Z,101098.40
2018-06-01T00:02:34.003Z,101097.55
2018-06-01T00:03:37.365Z,101101.33
2018-06-01T00:04:40.756Z,101099.55
2018-06-01T00:05:44.073Z,101107.27
2018-06-01T00:06:47.388Z,101106.00
2018-06-01T00:07:50.875Z,101109.65
2018-06-01T00:08:54.236Z,101109.73
2018-06-01T00:09:57.568Z,101111.52
2018-06-01T00:11:01.235Z,101117.58
2018-06-01T00:12:05.444Z,101109.02
2018-06-01T00:13:08.763Z,101119.45
2018-06-01T00:14:12.116Z,101121.73
2018-06-01T00:15:15.439Z,101137.06
2018-06-01T00:16:18.759Z,101126.64
2018-06-01T00:17:22.091Z,101123.60
2018-06-01T00:18:25.516Z,101122.34
2018-06-01T00:19:28.857Z,101118.40
2018-06-01T00:20:32.175Z,101123.40
2018-06-01T00:21:35.513Z,101119.84
2018-06-01T00:22:38.836Z,101120.03
2018-06-01T00:23:42.178Z,101126.39
2018-06-01T00:24:45.527Z,101122.54
2018-06-01T00:25:48.846Z,101122.30
2018-06-01T00:26:52.163Z,101125.66
2018-06-01T00:27:55.502Z,101121.26
2018-06-01T00:28:58.829Z,101120.41
2018-06-01T00:30:02.183Z,101125.13
2018-06-01T00:31:05.508Z,101122.92
2018-06-01T00:32:08.839Z,101117.69
2018-06-01T00:33:12.155Z,101117.69
2018-06-01T00:34:15.492Z,101115.20
2018-06-01T00:35:18.843Z,101111.22
2018-06-01T00:36:22.191Z,101119.02
2018-06-01T00:37:25.519Z,101116.83
2018-06-01T00:38:28.843Z,101113.40
2018-06-01T00:39:32.172Z,101114.42
2018-06-01T00:40:35.533Z,101111.81
2018-06-01T00:41:38.959Z,101111.91
2018-06-01T00:42:42.269Z,101118.58
2018-06-01T00:43:45.600Z,101115.97
2018-06-01T00:44:48.923Z,101114.31
2018-06-01T00:45:52.271Z,101115.16
2018-06-01T00:46:55.619Z,101114.73
2018-06-01T00:47:58.959Z,101107.63
2018-06-01T00:49:02.304Z,101107.72
2018-06-01T00:50:05.632Z,101105.95
2018-06-01T00:51:08.988Z,101103.45
2018-06-01T00:52:12.306Z,101100.42
2018-06-01T00:53:15.635Z,101103.64
2018-06-01T00:54:18.971Z,101101.02
2018-06-01T00:55:25.207Z,101099.80
2018-06-01T00:56:28.574Z,101099.47
2018-06-01T00:57:31.904Z,101099.98
2018-06-01T00:58:35.244Z,101103.71
2018-06-01T00:59:38.571Z,101107.39
2018-06-01T01:00:41.927Z,101109.25
2018-06-01T01:01:45.288Z,101106.64
2018-06-01T01:02:48.622Z,101098.27
2018-06-01T01:03:51.932Z,101107.03
2018-06-01T01:04:55.250Z,101104.93
2018-06-01T01:05:58.581Z,101101.47
2018-06-01T01:07:01.926Z,101104.78
2018-06-01T01:08:05.247Z,101102.30
2018-06-01T01:09:08.566Z,101103.65
2018-06-01T01:10:11.932Z,101102.05
2018-06-01T01:11:15.529Z,101100.50
2018-06-01T01:12:18.875Z,101095.69
2018-06-01T01:13:22.213Z,101098.70
2018-06-01T01:14:25.545Z,101090.66
2018-06-01T01:15:28.859Z,101093.13
2018-06-01T01:16:32.180Z,101093.77
2018-06-01T01:17:35.539Z,101091.75
2018-06-01T01:18:39.026Z,101093.75
2018-06-01T01:19:42.357Z,101088.73
2018-06-01T01:20:45.676Z,101091.11
2018-06-01T01:21:49.011Z,101087.65
2018-06-01T01:22:52.371Z,101085.67
2018-06-01T01:23:55.682Z,101088.98
2018-06-01T01:24:59.012Z,101088.17
2018-06-01T01:26:02.345Z,101091.98
2018-06-01T01:27:05.665Z,101090.22
2018-06-01T01:28:09.012Z,101097.91
2018-06-01T01:29:12.332Z,101099.18
2018-06-01T01:30:15.646Z,101101.98
2018-06-01T01:31:18.983Z,101105.11
2018-06-01T01:32:22.369Z,101106.88
2018-06-01T01:33:25.735Z,101111.78
2018-06-01T01:34:29.078Z,101112.84
2018-06-01T01:35:32.422Z,101113.25
2018-06-01T01:36:35.755Z,101107.75
2018-06-01T01:37:39.076Z,101114.01
2018-06-01T01:38:42.427Z,101111.72
2018-06-01T01:39:45.777Z,101120.27
2018-06-01T01:40:59.584Z,101117.65
2018-06-01T01:42:02.908Z,101114.31
2018-06-01T01:43:06.231Z,101114.83
2018-06-01T01:44:09.595Z,101117.53
2018-06-01T01:45:12.920Z,101122.02
2018-06-01T01:46:16.261Z,101120.96
2018-06-01T01:47:19.587Z,101120.45
2018-06-01T01:48:22.917Z,101121.29
2018-06-01T01:49:26.261Z,101125.26
2018-06-01T01:50:29.602Z,101128.39
2018-06-01T01:51:32.932Z,101124.63
2018-06-01T01:52:36.256Z,101130.80
2018-06-01T01:53:39.570Z,101130.70
2018-06-01T01:54:42.927Z,101135.06
2018-06-01T01:55:46.249Z,101144.88
2018-06-01T01:56:49.565Z,101140.20
2018-06-01T01:57:52.883Z,101150.95
2018-06-01T01:58:56.216Z,101150.53
2018-06-01T01:59:59.560Z,101153.66
2018-06-01T02:01:02.879Z,101151.04
2018-06-01T02:02:06.252Z,101145.63
2018-06-01T02:03:09.572Z,101147.91
2018-06-01T02:04:12.896Z,101147.40
2018-06-01T02:05:16.247Z,101141.98
2018-06-01T02:06:19.576Z,101141.56
2018-06-01T02:07:22.902Z,101133.44
2018-06-01T02:08:26.224Z,101139.27
2018-06-01T02:09:29.545Z,101126.25
2018-06-01T02:10:32.912Z,101131.66
2018-06-01T02:11:36.420Z,101121.94
2018-06-01T02:12:39.742Z,101121.52
2018-06-01T02:13:43.080Z,101121.22
2018-06-01T02:14:46.439Z,101115.39
2018-06-01T02:15:49.807Z,101115.48
2018-06-01T02:16:53.141Z,101103.51
2018-06-01T02:17:56.477Z,101106.30
2018-06-01T02:18:59.967Z,101109.61
2018-06-01T02:20:03.300Z,101102.64
2018-06-01T02:21:06.641Z,101098.34
2018-06-01T02:22:09.971Z,101093.14
2018-06-01T02:23:13.303Z,101093.73
2018-06-01T02:24:16.628Z,101095.40
2018-06-01T02:25:19.947Z,101094.56
2018-06-01T02:27:32.843Z,101089.60
2018-06-01T02:28:36.164Z,101087.49
2018-06-01T02:29:39.483Z,101083.41
2018-06-01T02:30:42.818Z,101082.27
2018-06-01T02:31:46.177Z,101082.45
2018-06-01T02:32:49.511Z,101083.50
2018-06-01T02:33:52.851Z,101082.75
2018-06-01T02:34:56.177Z,101085.04
2018-06-01T02:35:59.509Z,101084.31
2018-06-01T02:37:02.860Z,101085.77
2018-06-01T02:38:06.184Z,101092.62
2018-06-01T02:39:10.010Z,101099.38
2018-06-01T02:40:13.356Z,101098.13
2018-06-01T02:41:16.703Z,101096.86
2018-06-01T02:42:20.048Z,101094.15
2018-06-01T02:43:23.386Z,101095.50
2018-06-01T02:44:26.726Z,101094.15
2018-06-01T02:45:30.069Z,101097.41
2018-06-01T02:46:33.400Z,101092.50
2018-06-01T02:47:36.760Z,101093.44
2018-06-01T02:48:40.090Z,101095.63
2018-06-01T02:49:43.442Z,101096.65
2018-06-01T02:50:47.228Z,101093.61
2018-06-01T02:51:50.554Z,101088.71
2018-06-01T02:52:53.920Z,101090.19
2018-06-01T02:53:57.263Z,101090.36
2018-06-01T02:55:00.602Z,101090.45
2018-06-01T02:56:03.929Z,101094.64
2018-06-01T02:57:07.257Z,101089.83
2018-06-01T02:58:10.621Z,101093.88
2018-06-01T02:59:13.952Z,101090.42
2018-06-01T03:00:17.282Z,101088.86
2018-06-01T03:01:20.607Z,101083.54
2018-06-01T03:02:23.924Z,101075.09
2018-06-01T03:03:27.278Z,101078.34
2018-06-01T03:04:30.603Z,101068.03
2018-06-01T03:05:33.949Z,101071.39
2018-06-01T03:06:48.882Z,101064.59
2018-06-01T03:07:52.225Z,101056.45
2018-06-01T03:08:55.575Z,101051.59
2018-06-01T03:09:58.911Z,101049.90
2018-06-01T03:11:02.232Z,101047.80
2018-06-01T03:12:05.699Z,101047.25
2018-06-01T03:13:09.021Z,101046.20
2018-06-01T03:14:12.374Z,101043.80
2018-06-01T03:15:15.716Z,101049.90
2018-06-01T03:16:19.044Z,101047.49
2018-06-01T03:17:22.396Z,101054.86
2018-06-01T03:18:25.752Z,101056.72
2018-06-01T03:19:29.096Z,101068.38
2018-06-01T03:20:32.419Z,101064.41
2018-06-01T03:21:35.761Z,101069.44
2018-06-01T03:22:39.159Z,101073.16
2018-06-01T03:23:42.487Z,101073.58
2018-06-01T03:24:45.842Z,101075.02
2018-06-01T03:25:49.172Z,101071.89
2018-06-01T03:26:52.517Z,101074.27
2018-06-01T03:27:55.827Z,101077.90
2018-06-01T03:28:59.520Z,101085.63
2018-06-01T03:30:02.861Z,101093.20
2018-06-01T03:31:06.190Z,101101.13
2018-06-01T03:32:09.542Z,101103.75
2018-06-01T03:33:12.862Z,101107.17
2018-06-01T03:34:16.199Z,101112.70
2018-06-01T03:35:19.543Z,101112.50
2018-06-01T03:36:22.877Z,101114.60
2018-06-01T03:37:26.200Z,101111.39
2018-06-01T03:38:29.544Z,101115.66
2018-06-01T03:39:32.876Z,101114.43
2018-06-01T03:40:36.247Z,101108.52
2018-06-01T03:41:39.580Z,101107.16
2018-06-01T03:42:42.903Z,101099.38
2018-06-01T03:43:46.255Z,101098.11
2018-06-01T03:44:49.593Z,101089.16
2018-06-01T03:45:53.113Z,101081.97
2018-06-01T03:46:56.868Z,101074.91
2018-06-01T03:48:00.191Z,101076.02
2018-06-01T03:49:03.527Z,101071.12
2018-06-01T03:50:06.914Z,101078.81
2018-06-01T03:51:10.282Z,101079.74
2018-06-01T03:52:13.599Z,101084.64
2018-06-01T03:53:16.960Z,101085.06
2018-06-01T03:54:20.301Z,101093.09
2018-06-01T03:55:23.639Z,101094.86
2018-06-01T03:56:26.978Z,101088.52
2018-06-01T03:57:30.300Z,101085.91
2018-06-01T03:58:33.659Z,101085.48
2018-06-01T03:59:37.004Z,101087.77
2018-06-01T04:00:40.351Z,101092.67
2018-06-01T04:01:43.715Z,101095.88
2018-06-01T04:02:47.043Z,101093.09
2018-06-01T04:03:50.402Z,101102.64
2018-06-01T04:04:53.738Z,101102.55
2018-06-01T04:05:57.088Z,101100.88
2018-06-01T04:07:00.437Z,101104.72
2018-06-01T04:08:03.764Z,101104.80
2018-06-01T04:09:07.091Z,101106.16
2018-06-01T04:10:10.554Z,101106.67
2018-06-01T04:11:13.897Z,101111.02
2018-06-01T04:12:17.420Z,101112.88
2018-06-01T04:13:20.751Z,101119.73
2018-06-01T04:14:24.089Z,101123.48
2018-06-01T04:15:27.420Z,101128.05
2018-06-01T04:16:30.755Z,101124.47
2018-06-01T04:17:34.119Z,101137.23
2018-06-01T04:18:37.478Z,101138.59
2018-06-01T04:19:40.818Z,101144.51
2018-06-01T04:20:44.234Z,101146.28
2018-06-01T04:21:47.556Z,101138.80
2018-06-01T04:22:50.922Z,101145.56
2018-06-01T04:23:54.244Z,101141.50
2018-06-01T04:24:57.617Z,101149.92
2018-06-01T04:26:00.956Z,101157.52
2018-06-01T04:27:04.284Z,101166.90
2018-06-01T04:28:07.644Z,101176.70
2018-06-01T04:29:10.982Z,101181.59
2018-06-01T04:30:14.310Z,101192.72
2018-06-01T04:31:17.643Z,101200.96
2018-06-01T04:32:20.971Z,101207.63
2018-06-01T04:33:24.335Z,101215.66
2018-06-01T04:34:27.697Z,101226.70
2018-06-01T04:35:31.020Z,101237.84
2018-06-01T04:36:34.357Z,101238.27
2018-06-01T04:37:37.679Z,101238.91
2018-06-01T04:38:41.017Z,101240.27
2018-06-01T04:39:44.343Z,101236.03
2018-06-01T04:40:47.692Z,101238.86
2018-06-01T04:41:51.008Z,101231.41
2018-06-01T04:42:54.448Z,101232.05
2018-06-01T04:43:57.845Z,101231.84
2018-06-01T04:45:01.182Z,101225.75
2018-06-01T04:46:04.510Z,101229.60
2018-06-01T04:47:07.836Z,101230.69
2018-06-01T04:48:11.188Z,101231.92
2018-06-01T04:49:14.573Z,101227.36
2018-06-01T04:50:17.901Z,101235.80
2018-06-01T04:51:21.280Z,101233.94
2018-06-01T04:52:24.608Z,101235.30
2018-06-01T04:53:27.938Z,101229.89
2018-06-01T04:54:31.299Z,101240.29
2018-06-01T04:55:34.627Z,101241.22
2018-06-01T04:56:37.961Z,101241.64
2018-06-01T04:57:41.361Z,101246.20
2018-06-01T04:58:44.671Z,101246.20
2018-06-01T04:59:48.027Z,101252.55
2018-06-01T05:00:51.364Z,101253.48
2018-06-01T05:01:54.691Z,101264.81
2018-06-01T05:02:58.034Z,101260.87
2018-06-01T05:04:01.357Z,101263.16
2018-06-01T05:05:04.745Z,101266.80
2018-06-01T05:06:08.113Z,101268.57
2018-06-01T05:07:11.433Z,101270.85
2018-06-01T05:08:15.188Z,101273.14
2018-06-01T05:09:18.490Z,101273.56
2018-06-01T05:10:21.862Z,101279.39
2018-06-01T05:11:25.195Z,101276.77
2018-06-01T05:12:28.533Z,101281.77
2018-06-01T05:13:31.847Z,101288.19
2018-06-01T05:14:35.176Z,101283.71
2018-06-01T05:15:38.543Z,101292.45
2018-06-01T05:16:41.891Z,101301.08
2018-06-01T05:17:45.213Z,101297.20
2018-06-01T05:18:48.603Z,101297.06
2018-06-01T05:19:51.955Z,101301.42
2018-06-01T05:20:55.332Z,101297.73
2018-06-01T05:21:58.674Z,101296.67
2018-06-01T05:23:02.046Z,101291.10
2018-06-01T05:24:05.390Z,101276.18
2018-06-01T05:25:08.714Z,101258.34
2018-06-01T05:26:12.079Z,101250.86
2018-06-01T05:27:15.704Z,101241.73
2018-06-01T05:28:19.040Z,101234.29
2018-06-01T05:29:22.425Z,101227.36
2018-06-01T05:30:25.923Z,101227.06
2018-06-01T05:31:29.283Z,101228.57
2018-06-01T05:32:32.610Z,101213.83
2018-06-01T05:33:35.944Z,101203.26
2018-06-01T05:34:39.278Z,101194.52
2018-06-01T05:35:42.604Z,101201.82
2018-06-01T05:36:45.954Z,101213.08
2018-06-01T05:37:49.283Z,101221.65
2018-06-01T05:38:52.619Z,101228.35
2018-06-01T05:39:55.954Z,101220.20
2018-06-01T05:40:59.284Z,101219.13
2018-06-01T05:42:02.647Z,101214.77
2018-06-01T05:43:06.002Z,101209.03
2018-06-01T05:44:09.369Z,101203.21
2018-06-01T05:45:12.717Z,101203.37
2018-06-01T05:46:16.131Z,101197.67
2018-06-01T05:47:19.774Z,101202.52
2018-06-01T05:48:23.099Z,101198.63
2018-06-01T05:49:26.444Z,101193.31
2018-06-01T05:50:29.814Z,101189.97
2018-06-01T05:51:33.148Z,101190.39
2018-06-01T05:52:36.517Z,101175.80
2018-06-01T05:53:39.849Z,101175.66
2018-06-01T05:54:43.193Z,101167.84
2018-06-01T05:55:46.563Z,101163.96
2018-06-01T05:56:49.882Z,101163.73
2018-06-01T05:57:53.243Z,101167.66
2018-06-01T05:58:56.571Z,101162.42
2018-06-01T05:59:59.907Z,101170.61
2018-06-01T06:01:03.234Z,101164.06
2018-06-01T06:02:06.592Z,101160.80
2018-06-01T06:03:09.938Z,101157.34
2018-06-01T06:04:13.269Z,101165.64
2018-06-01T06:05:16.604Z,101159.82
2018-06-01T06:06:19.982Z,101158.98
2018-06-01T06:07:23.330Z,101150.80
2018-06-01T06:08:26.704Z,101149.83
2018-06-01T06:09:30.114Z,101156.41
2018-06-01T06:10:33.427Z,101157.59
2018-06-01T06:11:36.792Z,101158.74
2018-06-01T06:12:40.213Z,101159.50
2018-06-01T06:13:43.573Z,101160.73
2018-06-01T06:14:46.907Z,101165.13
2018-06-01T06:15:50.247Z,101159.72
2018-06-01T06:16:53.589Z,101151.41
2018-06-01T06:17:56.927Z,101150.22
2018-06-01T06:19:00.299Z,101153.68
2018-06-01T06:20:03.796Z,101154.95
2018-06-01T06:21:07.129Z,101162.09
2018-06-01T06:22:10.457Z,101167.91
2018-06-01T06:23:13.939Z,101163.44
2018-06-01T06:24:17.294Z,101165.75
2018-06-01T06:25:20.624Z,101164.39
2018-06-01T06:26:23.943Z,101161.70
2018-06-01T06:27:27.288Z,101170.61
2018-06-01T06:28:30.609Z,101166.39
2018-06-01T06:29:34.031Z,101177.95
2018-06-01T06:30:37.364Z,101183.15
2018-06-01T06:31:40.700Z,101181.20
2018-06-01T06:32:44.038Z,101182.05
2018-06-01T06:33:47.630Z,101186.91
2018-06-01T06:34:50.999Z,101189.02
2018-06-01T06:35:54.324Z,101189.45
2018-06-01T06:36:57.653Z,101192.91
2018-06-01T06:38:01.144Z,101190.94
2018-06-01T06:39:04.447Z,101188.99
2018-06-01T06:40:07.827Z,101184.23
2018-06-01T06:41:11.148Z,101187.78
2018-06-01T06:42:14.491Z,101181.78
2018-06-01T06:43:17.831Z,101176.27
2018-06-01T06:44:21.190Z,101175.59
2018-06-01T06:45:24.543Z,101177.24
2018-06-01T06:46:27.867Z,101173.06
2018-06-01T06:47:31.226Z,101169.30
2018-06-01T06:48:34.578Z,101167.39
2018-06-01T06:49:37.955Z,101166.83
2018-06-01T06:50:41.469Z,101165.68
2018-06-01T06:51:44.784Z,101162.73
2018-06-01T06:52:48.120Z,101164.41
2018-06-01T06:53:51.447Z,101158.56
2018-06-01T06:54:54.813Z,101159.97
2018-06-01T06:55:58.180Z,101164.49
2018-06-01T06:57:01.600Z,101158.25
2018-06-01T06:58:04.955Z,101155.02
2018-06-01T06:59:08.283Z,101146.75
2018-06-01T07:00:12.827Z,101137.00
2018-06-01T07:01:16.211Z,101133.80
2018-06-01T07:02:19.537Z,101136.72
2018-06-01T07:03:22.862Z,101134.44
2018-06-01T07:04:26.188Z,101137.78
2018-06-01T07:05:29.520Z,101135.56
2018-06-01T07:06:32.910Z,101132.00
2018-06-01T07:07:36.238Z,101131.05
2018-06-01T07:08:39.563Z,101134.16
2018-06-01T07:09:43.121Z,101129.64
2018-06-01T07:10:46.450Z,101127.44
2018-06-01T07:11:49.808Z,101122.19
2018-06-01T07:12:53.294Z,101119.48
2018-06-01T07:13:56.624Z,101117.27
2018-06-01T07:14:59.949Z,101114.11
2018-06-01T07:16:03.275Z,101110.29
2018-06-01T07:17:06.652Z,101105.88
2018-06-01T07:18:09.974Z,101101.36
2018-06-01T07:19:13.301Z,101102.56
2018-06-01T07:20:16.681Z,101097.81
2018-06-01T07:21:19.942Z,101107.27
2018-06-01T07:22:23.331Z,101109.53
2018-06-01T07:23:26.636Z,101109.45
2018-06-01T07:24:29.981Z,101108.44
2018-06-01T07:25:33.379Z,101120.39
2018-06-01T07:26:36.689Z,101110.86
2018-06-01T07:27:40.055Z,101116.59
2018-06-01T07:28:43.374Z,101111.28
2018-06-01T07:29:46.751Z,101115.75
2018-06-01T07:30:50.079Z,101117.32
2018-06-01T07:31:53.408Z,101110.41
2018-06-01T07:32:56.772Z,101110.03
2018-06-01T07:34:00.108Z,101108.83
2018-06-01T07:35:03.426Z,101107.64
2018-06-01T07:36:06.754Z,101104.77
2018-06-01T07:37:10.072Z,101109.75
2018-06-01T07:38:13.423Z,101115.83
2018-06-01T07:39:16.757Z,101113.72
2018-06-01T07:40:20.098Z,101113.30
2018-06-01T07:41:23.422Z,101109.67
2018-06-01T07:42:26.799Z,101114.98
2018-06-01T07:43:30.155Z,101115.48
2018-06-01T07:44:33.485Z,101124.09
2018-06-01T07:45:36.804Z,101123.25
2018-06-01T07:46:40.132Z,101127.50
2018-06-01T07:47:43.485Z,101129.44
2018-06-01T07:48:46.807Z,101132.98
2018-06-01T07:49:50.168Z,101138.29
2018-06-01T07:50:53.491Z,101140.37
2018-06-01T07:51:56.849Z,101141.05
2018-06-01T07:53:00.170Z,101139.45
2018-06-01T07:54:03.512Z,101135.95
2018-06-01T07:55:06.835Z,101137.13
2018-06-01T07:56:10.161Z,101142.67
2018-06-01T07:57:13.511Z,101145.17
2018-06-01T07:58:16.856Z,101146.35
2018-06-01T07:59:20.211Z,101145.64
2018-06-01T08:00:23.595Z,101149.61
2018-06-01T08:01:26.980Z,101160.97
2018-06-01T08:02:30.363Z,101161.11
2018-06-01T08:03:33.733Z,101163.64
2018-06-01T08:04:37.077Z,101169.09
2018-06-01T08:05:40.455Z,101176.82
2018-06-01T08:06:43.856Z,101189.62
2018-06-01T08:07:47.228Z,101193.92
2018-06-01T08:08:50.612Z,101199.23
2018-06-01T08:09:54.014Z,101207.48
2018-06-01T08:10:57.403Z,101206.85
2018-06-01T08:12:00.763Z,101214.88
2018-06-01T08:13:04.344Z,101210.23
2018-06-01T08:14:07.677Z,101216.05
2018-06-01T08:15:11.098Z,101222.61
2018-06-01T08:16:14.487Z,101216.53
2018-06-01T08:17:17.859Z,101218.72
2018-06-01T08:18:21.337Z,101228.91
2018-06-01T08:19:24.723Z,101228.82
2018-06-01T08:20:28.282Z,101230.51
2018-06-01T08:21:31.747Z,101238.61
2018-06-01T08:22:35.134Z,101237.69
2018-06-01T08:23:38.511Z,101232.67
2018-06-01T08:24:41.889Z,101238.50
2018-06-01T08:25:45.403Z,101236.84
2018-06-01T08:26:48.741Z,101239.84
2018-06-01T08:27:52.100Z,101245.25
2018-06-01T08:28:55.508Z,101246.09
2018-06-01T08:29:58.947Z,101262.72
2018-06-01T08:31:02.351Z,101253.77
2018-06-01T08:32:09.835Z,101255.04
2018-06-01T08:33:13.279Z,101255.63
2018-06-01T08:34:16.647Z,101258.88
2018-06-01T08:35:20.054Z,101254.06
2018-06-01T08:36:23.467Z,101257.27
2018-06-01T08:37:26.853Z,101259.83
2018-06-01T08:38:30.310Z,101258.22
2018-06-01T08:39:33.700Z,101263.41
2018-06-01T08:40:40.505Z,101264.11
2018-06-01T08:41:43.892Z,101260.65
2018-06-01T08:42:47.250Z,101265.20
2018-06-01T08:43:50.620Z,101262.70
2018-06-01T08:44:54.044Z,101266.92
2018-06-01T08:45:57.421Z,101267.00
2018-06-01T08:47:00.820Z,101260.45
2018-06-01T08:48:04.176Z,101256.06
2018-06-01T08:49:07.516Z,101252.30
2018-06-01T08:50:10.878Z,101249.34
2018-06-01T08:51:14.619Z,101243.63
2018-06-01T08:52:18.131Z,101249.63
2018-06-01T08:53:21.515Z,101251.81
2018-06-01T08:54:24.860Z,101255.02
2018-06-01T08:55:28.228Z,101265.40
2018-06-01T08:56:31.585Z,101265.40
2018-06-01T08:57:35.275Z,101268.86
2018-06-01T08:58:38.632Z,101275.41
2018-06-01T08:59:41.960Z,101273.47
2018-06-01T09:00:45.336Z,101275.47
2018-06-01T09:01:48.734Z,101278.52
2018-06-01T09:02:52.123Z,101275.39
2018-06-01T09:03:55.447Z,101277.16
2018-06-01T09:04:58.842Z,101278.17
2018-06-01T09:06:02.228Z,101279.38
2018-06-01T09:07:05.620Z,101281.44
2018-06-01T09:08:09.002Z,101279.41
2018-06-01T09:09:12.373Z,101279.09
2018-06-01T09:10:15.842Z,101274.70
2018-06-01T09:11:19.134Z,101281.03
2018-06-01T09:12:22.495Z,101269.39
2018-06-01T09:13:26.404Z,101267.20
2018-06-01T09:14:29.768Z,101266.89
2018-06-01T09:15:33.191Z,101262.50
2018-06-01T09:16:36.561Z,101269.41
2018-06-01T09:17:39.955Z,101278.98
2018-06-01T09:18:43.341Z,101282.06
2018-06-01T09:19:46.794Z,101287.38
2018-06-01T09:20:50.173Z,101283.67
2018-06-01T09:21:53.588Z,101282.55
2018-06-01T09:22:56.980Z,101278.42
2018-06-01T09:24:00.393Z,101273.02
2018-06-01T09:25:03.742Z,101271.67
2018-06-01T09:26:07.116Z,101270.40
2018-06-01T09:27:10.475Z,101279.42
2018-06-01T09:28:13.870Z,101274.65
2018-06-01T09:29:17.539Z,101276.92
2018-06-01T09:30:20.896Z,101280.13
2018-06-01T09:31:24.290Z,101276.92
2018-06-01T09:32:27.699Z,101282.25
2018-06-01T09:33:31.120Z,101285.36
2018-06-01T09:34:34.471Z,101283.48
2018-06-01T09:35:37.904Z,101291.08
2018-06-01T09:36:41.604Z,101290.98
2018-06-01T09:37:45.355Z,101293.10
2018-06-01T09:38:48.731Z,101293.41
2018-06-01T09:39:52.233Z,101291.98
2018-06-01T09:40:55.622Z,101305.48
2018-06-01T09:41:58.972Z,101290.28
2018-06-01T09:43:02.888Z,101296.73
2018-06-01T09:44:06.251Z,101291.58
2018-06-01T09:45:09.643Z,101293.55
2018-06-01T09:46:13.071Z,101294.14
2018-06-01T09:47:16.436Z,101289.16
2018-06-01T09:48:19.763Z,101284.09
2018-06-01T09:49:23.143Z,101280.39
2018-06-01T09:50:26.555Z,101285.25
2018-06-01T09:51:30.685Z,101276.14
2018-06-01T09:52:34.019Z,101274.70
2018-06-01T09:53:37.383Z,101269.31
2018-06-01T09:54:40.699Z,101266.27
2018-06-01T09:55:44.076Z,101265.77
2018-06-01T09:56:47.439Z,101260.78
2018-06-01T09:57:50.761Z,101260.28
2018-06-01T09:58:54.115Z,101259.16
2018-06-01T09:59:57.435Z,101262.36
2018-06-01T10:01:00.799Z,101264.13
2018-06-01T10:02:04.123Z,101264.05
2018-06-01T10:03:07.446Z,101267.51
2018-06-01T10:04:10.775Z,101259.63
2018-06-01T10:05:14.113Z,101255.50
2018-06-01T10:06:17.462Z,101256.34
2018-06-01T10:07:20.787Z,101253.87
2018-06-01T10:08:24.134Z,101252.48
2018-06-01T10:09:27.471Z,101255.16
2018-06-01T10:10:36.586Z,101254.17
2018-06-01T10:11:39.943Z,101256.34
2018-06-01T10:12:43.267Z,101250.91
2018-06-01T10:13:47.508Z,101254.92
2018-06-01T10:14:50.834Z,101257.94
2018-06-01T10:15:54.170Z,101265.45
2018-06-01T10:16:57.523Z,101266.72
2018-06-01T10:18:00.864Z,101259.54
2018-06-01T10:19:04.228Z,101259.63
2018-06-01T10:20:07.545Z,101264.09
2018-06-01T10:21:10.878Z,101259.12
2018-06-01T10:22:14.242Z,101263.25
2018-06-01T10:23:17.569Z,101265.11
2018-06-01T10:24:20.900Z,101259.37
2018-06-01T10:25:24.246Z,101256.87
2018-06-01T10:26:27.649Z,101254.59
2018-06-01T10:27:30.955Z,101255.86
2018-06-01T10:28:34.809Z,101255.56
2018-06-01T10:29:38.475Z,101263.47
2018-06-01T10:30:42.036Z,101262.04
2018-06-01T10:31:45.390Z,101262.46
2018-06-01T10:32:48.757Z,101258.83
2018-06-01T10:33:52.094Z,101256.55
2018-06-01T10:34:55.434Z,101253.94
2018-06-01T10:35:58.751Z,101251.31
2018-06-01T10:37:02.082Z,101257.77
2018-06-01T10:38:05.438Z,101252.95
2018-06-01T10:39:08.944Z,101249.74
2018-06-01T10:40:12.325Z,101251.94
2018-06-01T10:41:15.648Z,101257.68
2018-06-01T10:42:18.987Z,101256.21
2018-06-01T10:43:22.345Z,101254.78
2018-06-01T10:44:25.661Z,101255.20
2018-06-01T10:45:29.003Z,101253.26
2018-06-01T10:46:32.323Z,101256.61
2018-06-01T10:47:35.661Z,101254.13
2018-06-01T10:48:39.075Z,101256.57
2018-06-01T10:49:42.415Z,101256.87
2018-06-01T10:50:45.748Z,101251.30
2018-06-01T10:51:49.075Z,101251.52
2018-06-01T10:52:52.405Z,101250.42
2018-06-01T10:53:55.770Z,101250.42
2018-06-01T10:54:59.173Z,101249.29
2018-06-01T10:56:02.524Z,101249.97
2018-06-01T10:57:05.857Z,101251.40
2018-06-01T10:58:09.200Z,101251.45
2018-06-01T10:59:12.616Z,101248.80
2018-06-01T11:00:15.946Z,101256.33
2018-06-01T11:01:19.356Z,101253.67
2018-06-01T11:02:22.702Z,101259.33
2018-06-01T11:03:26.043Z,101259.04
2018-06-01T11:04:29.417Z,101257.40
2018-06-01T11:05:32.759Z,101260.35
2018-06-01T11:06:36.096Z,101263.81
2018-06-01T11:07:39.426Z,101264.20
2018-06-01T11:08:42.782Z,101260.27
2018-06-01T11:09:46.138Z,101265.17
2018-06-01T11:10:49.478Z,101264.20
2018-06-01T11:11:52.803Z,101269.44
2018-06-01T11:12:56.133Z,101274.67
2018-06-01T11:13:59.629Z,101272.95
2018-06-01T11:15:03.018Z,101271.64
2018-06-01T11:16:06.587Z,101271.91
2018-06-01T11:17:09.916Z,101270.52
2018-06-01T11:18:13.279Z,101268.41
2018-06-01T11:19:16.607Z,101271.48
2018-06-01T11:20:19.989Z,101267.77
2018-06-01T11:21:23.348Z,101267.73
2018-06-01T11:22:26.784Z,101270.05
2018-06-01T11:23:30.109Z,101272.08
2018-06-01T11:24:33.438Z,101269.08
2018-06-01T11:25:36.823Z,101278.34
2018-06-01T11:26:40.193Z,101272.75
2018-06-01T11:27:43.524Z,101277.15
2018-06-01T11:28:46.847Z,101272.08
2018-06-01T11:29:50.179Z,101269.19
2018-06-01T11:30:53.534Z,101273.89
2018-06-01T11:31:56.865Z,101263.73
2018-06-01T11:33:00.186Z,101268.60
2018-06-01T11:34:03.530Z,101264.03
2018-06-01T11:35:06.881Z,101264.45
2018-06-01T11:36:10.236Z,101262.08
2018-06-01T11:37:13.583Z,101262.42
2018-06-01T11:38:16.932Z,101256.80
2018-06-01T11:39:20.244Z,101253.16
2018-06-01T11:40:23.577Z,101257.13
2018-06-01T11:41:26.929Z,101253.49
2018-06-01T11:42:30.255Z,101256.20
2018-06-01T11:43:33.596Z,101254.00
2018-06-01T11:44:36.956Z,101252.14
2018-06-01T11:45:40.277Z,101262.45
2018-06-01T11:46:43.651Z,101250.87
2018-06-01T11:47:46.979Z,101254.09
2018-06-01T11:48:50.317Z,101258.66
2018-06-01T11:49:53.646Z,101254.60
2018-06-01T11:50:56.992Z,101255.11
2018-06-01T11:52:00.364Z,101250.41
2018-06-01T11:53:03.691Z,101249.78
2018-06-01T11:54:07.525Z,101246.41
2018-06-01T11:55:11.060Z,101251.81
2018-06-01T11:56:14.405Z,101254.02
2018-06-01T11:57:17.821Z,101256.12
2018-06-01T11:58:21.119Z,101251.13
2018-06-01T11:59:24.451Z,101256.84
2018-06-01T12:00:27.777Z,101251.26
2018-06-01T12:01:31.112Z,101255.23
2018-06-01T12:02:34.468Z,101255.95
2018-06-01T12:03:37.804Z,101257.77
2018-06-01T12:04:41.138Z,101255.19